Terminal Aerodrome Forecast
Issued by NWS Charleston, WV

Current Version | Previous Version | Graphics & Text | Print | Product List | Glossary On
Versions: 1 2 3 4 5 6 7 8 9 10 11 12 13 14 15 16 17 18 19 20 21 22 23
718
FTUS41 KRLX 280541
TAFCRW
TAF
KCRW 280541Z 2806/2906 21008KT 4SM BR VCSH FEW001 OVC090
     FM280700 00000KT 4SM SHRA BR VCTS OVC025CB
     FM281100 16004KT 4SM BR OVC015
     FM281300 18004KT P6SM OVC025
     FM281700 24007KT P6SM BKN040
     FM290300 VRB03KT P6SM SCT200=

USA.gov is the U.S. government's official web portal to all federal, state and local government web resources and services.